Time;durP1;ratioP1;P1;durP2;ratioP2;P2;SDS_P1;SDS_P2;PMS_P1;PMS_P2;Temp;Humidity;BMP_temperature;BMP_pressure;BME280_temperature;BME280_humidity;BME280_pressure;Samples;Min_cycle;Max_cycle;Signal;HPM_P1;HPM_P2
2022/01/27 00:00:31;;;;;;;14.77;11.60;;;;;;;1.80;100.00;100683.75;15325633;19;20153;-52
2022/01/27 00:05:28;;;;;;;19.57;14.70;;;;;;;1.51;100.00;100701.94;15337638;19;20206;-54
2022/01/27 00:10:48;;;;;;;20.30;15.13;;;;;;;1.44;100.00;100695.09;15347659;19;20166;-54
2022/01/27 00:16:00;;;;;;;19.60;15.63;;;;;;;1.42;100.00;100697.75;15349281;19;20147;-54
2022/01/27 00:21:04;;;;;;;23.30;15.30;;;;;;;1.41;100.00;100684.63;15328159;19;20168;-56
2022/01/27 00:26:11;;;;;;;20.40;14.47;;;;;;;1.38;100.00;100679.44;15325963;19;20153;-53
2022/01/27 00:31:16;;;;;;;21.83;15.03;;;;;;;1.35;100.00;100684.75;15346429;19;20586;-55
2022/01/27 00:41:21;;;;;;;19.37;14.43;;;;;;;1.22;100.00;100678.00;15341396;19;20933;-53
2022/01/27 00:46:26;;;;;;;22.73;15.77;;;;;;;1.17;100.00;100674.63;15324447;19;20151;-54
2022/01/27 00:51:35;;;;;;;21.27;14.33;;;;;;;1.15;100.00;100706.19;15342739;19;20163;-56
2022/01/27 00:56:47;;;;;;;18.63;13.40;;;;;;;1.19;100.00;100680.72;15348744;19;20156;-53
2022/01/27 01:02:00;;;;;;;20.27;13.90;;;;;;;1.25;100.00;100688.47;15347959;19;20736;-55
2022/01/27 01:07:05;;;;;;;21.33;14.57;;;;;;;1.27;100.00;100691.94;15326913;19;20145;-53
2022/01/27 01:17:23;;;;;;;24.97;15.10;;;;;;;1.35;100.00;100682.09;15344338;19;20530;-56
2022/01/27 01:33:07;;;;;;;27.43;16.23;;;;;;;1.39;100.00;100678.53;15325720;19;20760;-53
2022/01/27 01:38:11;;;;;;;31.47;18.40;;;;;;;1.39;100.00;100670.63;15349034;19;20143;-55
2022/01/27 01:43:17;;;;;;;31.93;17.37;;;;;;;1.38;100.00;100679.44;15347474;19;20607;-53
2022/01/27 01:48:21;;;;;;;29.00;17.27;;;;;;;1.42;100.00;100675.84;15347005;19;20161;-52
2022/01/27 01:53:27;;;;;;;30.63;17.00;;;;;;;1.41;100.00;100658.34;15318206;19;20149;-52
2022/01/27 01:58:31;;;;;;;34.53;19.67;;;;;;;1.50;100.00;100644.13;15337373;19;20144;-56
2022/01/27 02:03:36;;;;;;;34.07;18.87;;;;;;;1.51;100.00;100680.91;15348289;19;20160;-50
2022/01/27 02:08:48;;;;;;;34.70;19.03;;;;;;;1.55;100.00;100656.28;15346746;19;20149;-54
2022/01/27 02:18:49;;;;;;;36.70;18.77;;;;;;;1.60;100.00;100643.88;15324888;19;20517;-53
2022/01/27 02:23:54;;;;;;;40.83;19.83;;;;;;;1.61;100.00;100624.56;15349173;19;20149;-53
2022/01/27 02:28:58;;;;;;;33.53;18.77;;;;;;;1.63;100.00;100637.69;15347877;19;20151;-53
2022/01/27 02:43:54;;;;;;;35.03;19.67;;;;;;;1.64;100.00;100613.09;15337130;19;20489;-51
2022/01/27 02:53:59;;;;;;;39.93;21.37;;;;;;;1.72;100.00;100612.03;15344593;19;20583;-54
2022/01/27 03:03:58;;;;;;;36.40;19.67;;;;;;;1.69;100.00;100601.56;15178659;19;2874587;-51
2022/01/27 03:09:03;;;;;;;39.20;20.07;;;;;;;1.68;100.00;100588.47;15349735;19;20148;-53
2022/01/27 03:14:09;;;;;;;43.23;21.33;;;;;;;1.68;100.00;100591.09;15349418;19;20478;-54
2022/01/27 03:19:13;;;;;;;42.43;20.50;;;;;;;1.70;100.00;100590.16;15344378;19;20176;-53
2022/01/27 03:24:18;;;;;;;40.70;21.53;;;;;;;1.68;100.00;100588.47;15321812;19;20621;-53
2022/01/27 03:29:23;;;;;;;44.93;20.90;;;;;;;1.68;100.00;100577.94;15343486;19;20154;-54
2022/01/27 03:39:26;;;;;;;38.27;20.37;;;;;;;1.74;100.00;100591.81;15344415;19;20493;-51
2022/01/27 03:44:31;;;;;;;40.63;20.07;;;;;;;1.75;100.00;100595.31;15327846;19;20663;-54
2022/01/27 03:49:36;;;;;;;41.33;19.13;;;;;;;1.76;100.00;100603.16;15334206;19;20179;-54
2022/01/27 03:54:40;;;;;;;38.00;19.03;;;;;;;1.77;100.00;100610.16;15345579;19;20163;-53
2022/01/27 03:59:45;;;;;;;39.70;19.07;;;;;;;1.78;100.00;100590.84;15348569;19;20184;-54
2022/01/27 04:04:49;;;;;;;32.93;18.43;;;;;;;1.80;100.00;100572.41;15340661;19;20205;-55
2022/01/27 04:09:54;;;;;;;34.33;18.00;;;;;;;1.82;100.00;100554.78;15323726;19;20141;-54
2022/01/27 04:14:58;;;;;;;34.10;17.33;;;;;;;1.83;100.00;100551.25;15343456;19;20146;-57
2022/01/27 04:20:03;;;;;;;33.63;16.53;;;;;;;1.87;100.00;100554.69;15347261;19;20145;-54
2022/01/27 04:25:08;;;;;;;29.10;15.93;;;;;;;1.93;100.00;100552.78;15346200;19;20154;-55
2022/01/27 04:30:16;;;;;;;34.37;15.93;;;;;;;1.93;100.00;100544.88;15322018;19;20146;-55
2022/01/27 04:35:22;;;;;;;29.63;16.03;;;;;;;1.98;100.00;100539.47;15333055;19;20237;-52
2022/01/27 04:40:34;;;;;;;28.90;15.07;;;;;;;1.99;100.00;100543.84;15346638;19;20162;-54
2022/01/27 04:45:46;;;;;;;25.30;13.83;;;;;;;2.05;100.00;100551.59;15343668;19;20154;-53
2022/01/27 04:50:52;;;;;;;29.13;14.40;;;;;;;2.07;100.00;100555.03;15267647;19;20689;-56
2022/01/27 04:55:59;;;;;;;26.60;14.50;;;;;;;2.05;100.00;100543.69;15264154;19;20158;-51
2022/01/27 05:01:04;;;;;;;31.00;15.63;;;;;;;2.05;100.00;100551.59;15281293;19;20528;-53
2022/01/27 05:11:12;;;;;;;26.47;14.67;;;;;;;2.10;100.00;100510.22;15338791;19;20825;-52
2022/01/27 05:16:17;;;;;;;30.27;15.90;;;;;;;2.08;100.00;100512.00;15322777;19;20578;-55
2022/01/27 05:31:14;;;;;;;31.27;16.90;;;;;;;2.03;100.00;100490.22;15344399;19;20457;-52
2022/01/27 05:36:19;;;;;;;38.93;17.93;;;;;;;2.05;100.00;100494.53;15329177;19;20142;-53
2022/01/27 05:41:24;;;;;;;35.17;17.77;;;;;;;2.08;100.00;100498.84;15329629;19;20161;-55
2022/01/27 05:46:29;;;;;;;40.43;19.13;;;;;;;2.06;100.00;100485.72;15348819;19;20146;-53
2022/01/27 05:51:33;;;;;;;37.93;18.40;;;;;;;2.07;100.00;100473.44;15345867;19;20170;-54
2022/01/27 05:56:38;;;;;;;41.47;19.57;;;;;;;2.04;100.00;100489.34;15341440;19;20642;-53
2022/01/27 06:01:42;;;;;;;39.63;19.43;;;;;;;2.02;100.00;100477.97;15320230;19;20743;-54
2022/01/27 06:06:47;;;;;;;36.90;19.17;;;;;;;2.01;100.00;100470.97;15341827;19;20189;-54
2022/01/27 06:11:51;;;;;;;41.20;19.60;;;;;;;1.98;100.00;100450.00;15346841;19;20148;-56
2022/01/27 06:21:50;;;;;;;41.50;19.83;;;;;;;1.94;100.00;100456.25;15170987;19;2878233;-53
2022/01/27 06:26:55;;;;;;;40.00;20.57;;;;;;;1.98;100.00;100450.00;15330289;19;20177;-53
2022/01/27 06:32:00;;;;;;;41.00;20.43;;;;;;;1.98;100.00;100429.81;15347831;19;20138;-51
2022/01/27 06:37:05;;;;;;;41.53;20.50;;;;;;;2.02;100.00;100427.97;15347714;19;20139;-53
2022/01/27 06:42:10;;;;;;;34.67;19.77;;;;;;;2.04;100.00;100407.75;15335488;19;20143;-57
2022/01/27 06:47:14;;;;;;;37.40;21.03;;;;;;;2.10;100.00;100413.69;15316538;19;20290;-56
2022/01/27 06:52:19;;;;;;;37.87;20.60;;;;;;;2.10;100.00;100418.09;15339966;19;20154;-55
2022/01/27 06:57:25;;;;;;;38.10;20.03;;;;;;;2.12;100.00;100409.25;15340880;19;20150;-56
2022/01/27 07:02:29;;;;;;;43.97;21.93;;;;;;;2.12;100.00;100416.28;15342139;19;20151;-51
2022/01/27 07:07:34;;;;;;;40.37;22.20;;;;;;;2.10;100.00;100402.28;15316926;19;20184;-53
2022/01/27 07:12:42;;;;;;;39.67;21.37;;;;;;;2.17;100.00;100403.84;15332707;19;20745;-54
2022/01/27 07:17:47;;;;;;;47.80;23.67;;;;;;;2.13;100.00;100408.34;15341320;19;20639;-53
2022/01/27 07:22:51;;;;;;;46.43;24.57;;;;;;;2.15;100.00;100395.13;15344232;19;20152;-56
2022/01/27 07:27:56;;;;;;;41.03;22.77;;;;;;;2.15;100.00;100389.88;15327978;19;20163;-55
2022/01/27 07:33:01;;;;;;;45.77;24.10;;;;;;;2.18;100.00;100395.03;15262627;19;20148;-54
2022/01/27 07:38:05;;;;;;;45.97;25.07;;;;;;;2.22;100.00;100380.88;15282153;19;20948;-53
2022/01/27 07:43:12;;;;;;;50.43;26.60;;;;;;;2.15;100.00;100379.34;15284391;19;20172;-53
2022/01/27 07:48:18;;;;;;;53.27;26.87;;;;;;;2.23;100.00;100393.13;15279701;19;20164;-55
2022/01/27 07:53:22;;;;;;;50.03;25.97;;;;;;;2.26;100.00;100387.78;15254641;19;20144;-52
2022/01/27 07:58:27;;;;;;;50.60;27.13;;;;;;;2.29;100.00;100366.66;15270808;19;20169;-56
2022/01/27 08:03:32;;;;;;;44.63;25.67;;;;;;;2.32;100.00;100365.66;15278559;19;20732;-55
2022/01/27 08:08:36;;;;;;;47.33;26.83;;;;;;;2.38;100.00;100374.25;15284306;19;20143;-53
2022/01/27 08:13:41;;;;;;;46.80;25.97;;;;;;;2.45;100.00;100359.97;15260341;19;20147;-56
2022/01/27 08:18:46;;;;;;;36.97;22.63;;;;;;;2.52;100.00;100343.09;15261580;19;20185;-52
2022/01/27 08:23:51;;;;;;;38.63;23.67;;;;;;;2.54;100.00;100325.47;15279221;19;20159;-57
2022/01/27 08:29:08;;;;;;;41.27;24.10;;;;;;;2.61;100.00;100298.94;15280068;19;20223;-55
2022/01/27 08:34:17;;;;;;;35.50;23.37;;;;;;;2.78;100.00;100286.06;15270066;19;20161;-55
2022/01/27 08:39:22;;;;;;;36.07;22.87;;;;;;;2.94;100.00;100307.50;15251911;19;20136;-54
2022/01/27 08:44:27;;;;;;;36.40;22.53;;;;;;;2.95;100.00;100293.41;15274052;19;20163;-55
2022/01/27 08:49:32;;;;;;;32.73;21.07;;;;;;;2.94;100.00;100289.91;15279528;19;20151;-55
2022/01/27 08:54:36;;;;;;;30.67;21.03;;;;;;;2.90;100.00;100306.72;15279103;19;20144;-53
2022/01/27 08:59:41;;;;;;;33.63;21.30;;;;;;;2.78;100.00;100283.44;15249674;19;20140;-57
2022/01/27 09:04:45;;;;;;;29.70;19.77;;;;;;;2.69;100.00;100270.56;15266673;19;20149;-56
2022/01/27 09:09:50;;;;;;;31.37;20.27;;;;;;;2.74;100.00;100280.06;15278015;19;20165;-54
2022/01/27 09:14:56;;;;;;;31.57;20.80;;;;;;;2.75;100.00;100265.09;15278238;19;20132;-54
2022/01/27 09:20:01;;;;;;;30.47;20.60;;;;;;;2.72;100.00;100268.69;15258730;19;20990;-56
2022/01/27 09:25:14;;;;;;;32.13;20.93;;;;;;;2.73;100.00;100248.47;15252806;19;20151;-52
2022/01/27 09:30:20;;;;;;;34.63;20.20;;;;;;;2.77;100.00;100261.50;15276291;19;20474;-52
2022/01/27 09:35:27;;;;;;;32.40;20.20;;;;;;;2.83;100.00;100237.56;15277525;19;20141;-52
2022/01/27 09:40:33;;;;;;;29.23;20.47;;;;;;;2.80;100.00;100242.94;15268030;19;20180;-56
2022/01/27 09:45:42;;;;;;;30.70;19.73;;;;;;;2.81;100.00;100217.44;15237489;19;20139;-53
2022/01/27 09:51:11;;;;;;;29.57;19.50;;;;;;;2.89;100.00;100208.41;15260609;19;21157;-53
2022/01/27 09:56:17;;;;;;;27.37;18.97;;;;;;;2.86;100.00;100215.53;15270613;19;20156;-55
2022/01/27 10:01:56;;;;;;;28.37;18.77;;;;;;;2.96;100.00;100200.25;15271900;19;20185;-54
2022/01/27 10:07:02;;;;;;;24.73;17.73;;;;;;;3.05;100.00;100195.50;15245179;19;20145;-53
2022/01/27 10:12:08;;;;;;;27.67;18.43;;;;;;;3.07;100.00;100171.75;15257710;19;20421;-54
2022/01/27 10:17:14;;;;;;;27.63;18.30;;;;;;;3.11;100.00;100163.69;15272178;19;20167;-55
2022/01/27 10:22:19;;;;;;;26.10;18.03;;;;;;;3.17;100.00;100174.00;15270885;19;20137;-57
2022/01/27 10:32:20;;;;;;;24.13;17.53;;;;;;;3.25;100.00;100171.09;15155362;19;3139550;-53
2022/01/27 10:37:25;;;;;;;21.83;16.67;;;;;;;3.23;100.00;100155.31;15346535;19;20157;-56
2022/01/27 10:42:30;;;;;;;23.13;16.40;;;;;;;3.24;100.00;100143.84;15347753;19;20152;-53
2022/01/27 10:47:42;;;;;;;21.90;15.93;;;;;;;3.31;100.00;100149.75;15347384;19;20191;-57
2022/01/27 10:52:57;;;;;;;21.00;16.03;;;;;;;3.30;100.00;100129.56;15317749;19;20148;-55
2022/01/27 10:58:02;;;;;;;21.60;15.90;;;;;;;3.33;100.00;100115.41;15339397;19;20165;-57
2022/01/27 11:08:03;;;;;;;20.50;15.10;;;;;;;3.38;100.00;100095.84;15171697;19;3336048;-54
2022/01/27 11:13:11;;;;;;;20.20;14.00;;;;;;;3.37;100.00;100085.38;15328228;19;20148;-55
2022/01/27 11:18:17;;;;;;;17.13;13.63;;;;;;;3.38;100.00;100079.19;15329718;19;20264;-54
2022/01/27 11:23:47;;;;;;;17.33;12.63;;;;;;;3.51;100.00;100083.03;15346649;19;20140;-57
2022/01/27 11:28:52;;;;;;;17.43;12.70;;;;;;;3.64;100.00;100068.44;15346275;19;20162;-55
2022/01/27 11:34:10;;;;;;;16.07;12.17;;;;;;;3.68;100.00;100027.84;15335901;19;20170;-53
2022/01/27 11:39:14;;;;;;;14.97;12.10;;;;;;;3.79;100.00;100049.38;15319398;19;20151;-54
2022/01/27 11:44:26;;;;;;;14.93;11.77;;;;;;;3.86;100.00;100042.94;15342224;19;20148;-53
2022/01/27 11:50:05;;;;;;;11.60;9.33;;;;;;;3.70;100.00;100044.47;15345346;19;20586;-55
2022/01/27 11:55:29;;;;;;;11.37;8.90;;;;;;;3.54;100.00;100009.06;15342992;19;20152;-57
2022/01/27 12:00:33;;;;;;;11.07;9.13;;;;;;;3.52;100.00;100042.56;15316411;19;20133;-54
2022/01/27 12:05:41;;;;;;;10.50;8.27;;;;;;;3.51;100.00;100010.03;15333718;19;20513;-54
2022/01/27 12:10:52;;;;;;;10.23;7.87;;;;;;;3.48;100.00;100004.91;15340837;19;20632;-54
2022/01/27 12:16:37;;;;;;;9.83;7.57;;;;;;;3.54;100.00;99972.13;15325262;19;20601;-51
2022/01/27 12:21:48;;;;;;;8.83;7.00;;;;;;;3.52;100.00;99995.06;15256001;19;20151;-55
2022/01/27 12:27:23;;;;;;;8.13;6.87;;;;;;;3.46;100.00;99985.66;15266935;19;20167;-55
2022/01/27 12:32:48;;;;;;;8.07;7.20;;;;;;;3.24;100.00;99969.84;15282923;19;20143;-54
2022/01/27 12:37:55;;;;;;;9.40;7.60;;;;;;;3.20;100.00;99962.09;15282336;19;20615;-55
2022/01/27 12:43:02;;;;;;;10.50;8.57;;;;;;;3.11;100.00;99952.78;15261763;19;20141;-53
2022/01/27 12:48:14;;;;;;;11.13;8.50;;;;;;;3.05;100.00;99944.25;15258259;19;20145;-56
2022/01/27 12:53:19;;;;;;;11.70;9.07;;;;;;;2.89;100.00;99938.75;15281854;19;20141;-55
2022/01/27 12:58:26;;;;;;;10.47;8.53;;;;;;;2.78;100.00;99938.28;15282284;19;20527;-54
2022/01/27 13:03:31;;;;;;;12.07;9.33;;;;;;;2.73;100.00;99934.97;15270878;19;20166;-53
2022/01/27 13:08:42;;;;;;;12.07;9.60;;;;;;;2.59;100.00;99924.09;15253628;19;20152;-53
2022/01/27 13:13:51;;;;;;;15.13;11.17;;;;;;;2.47;100.00;99918.38;15277739;19;20155;-55
2022/01/27 13:19:02;;;;;;;13.17;10.03;;;;;;;2.42;100.00;99915.03;15282989;19;20151;-54
2022/01/27 13:24:13;;;;;;;13.20;10.07;;;;;;;2.43;100.00;99911.50;15279106;19;20211;-57
2022/01/27 13:29:23;;;;;;;13.90;10.43;;;;;;;2.37;100.00;99916.16;15249405;19;20143;-54
2022/01/27 13:34:28;;;;;;;11.73;9.80;;;;;;;2.27;100.00;99896.34;15267004;19;20161;-55
2022/01/27 13:41:16;;;;;;;12.37;8.60;;;;;;;2.23;100.00;99885.06;15278502;19;20460;-53
2022/01/27 13:45:04;;;;;;;12.57;10.30;;;;;;;2.21;100.00;99889.53;15278849;19;20171;-56
2022/01/27 14:00:12;;;;;;;13.70;11.23;;;;;;;2.11;100.00;99861.84;15343401;19;20820;-52
2022/01/27 14:05:20;;;;;;;14.23;11.07;;;;;;;2.01;100.00;99865.72;15348005;19;20165;-55
2022/01/27 14:10:37;;;;;;;13.93;11.97;;;;;;;1.92;100.00;99845.03;15341209;19;20471;-56
2022/01/27 14:15:52;;;;;;;15.33;11.87;;;;;;;1.80;100.00;99841.06;15318606;19;20169;-55
2022/01/27 14:20:59;;;;;;;15.13;11.67;;;;;;;1.71;100.00;99831.72;15343475;19;20248;-54
2022/01/27 14:26:08;;;;;;;15.50;10.53;;;;;;;1.64;100.00;99808.34;15337029;19;20638;-54
2022/01/27 14:31:12;;;;;;;17.33;11.80;;;;;;;1.52;100.00;99814.88;15336144;19;20179;-54
2022/01/27 14:41:12;;;;;;;13.87;10.73;;;;;;;1.38;100.00;99796.13;15130627;19;3679370;-55
2022/01/27 14:46:26;;;;;;;15.60;10.83;;;;;;;1.27;100.00;99787.75;15348364;19;20173;-54
2022/01/27 14:51:34;;;;;;;15.17;11.53;;;;;;;1.27;100.00;99793.00;15346921;19;20221;-56
2022/01/27 15:01:34;;;;;;;18.93;14.10;;;;;;;1.22;100.00;99789.66;15162030;19;2986894;-53
2022/01/27 15:06:39;;;;;;;19.37;15.93;;;;;;;1.16;100.00;99790.75;15346884;19;20164;-55
2022/01/27 15:21:36;;;;;;;15.90;12.47;;;;;;;1.13;100.00;99763.72;15156580;19;2961875;-53
2022/01/27 15:26:42;;;;;;;17.43;13.30;;;;;;;1.13;100.00;99761.09;15335423;19;20179;-53
2022/01/27 15:36:47;;;;;;;16.17;13.00;;;;;;;1.16;100.00;99763.63;15341464;19;20602;-54
2022/01/27 15:41:54;;;;;;;17.33;12.83;;;;;;;1.11;100.00;99757.66;15321375;19;20179;-52
2022/01/27 15:46:59;;;;;;;16.27;12.27;;;;;;;1.13;100.00;99753.19;15322552;19;20160;-53
2022/01/27 15:56:59;;;;;;;12.70;10.13;;;;;;;1.20;100.00;99754.72;15185924;19;3050671;-52
2022/01/27 16:02:04;;;;;;;12.00;9.30;;;;;;;1.26;100.00;99750.09;15339480;19;20149;-55
2022/01/27 16:07:09;;;;;;;11.57;9.80;;;;;;;1.30;100.00;99728.06;15314685;19;20192;-53
2022/01/27 16:17:08;;;;;;;11.93;9.30;;;;;;;1.35;100.00;99743.66;15181113;19;3000033;-53
2022/01/27 16:22:15;;;;;;;11.90;9.43;;;;;;;1.36;100.00;99725.19;15343533;19;20155;-55
2022/01/27 16:27:20;;;;;;;12.83;9.50;;;;;;;1.41;100.00;99744.28;15317928;19;20150;-52
2022/01/27 16:32:26;;;;;;;10.43;8.57;;;;;;;1.39;100.00;99718.97;15318443;19;20677;-55
2022/01/27 16:37:31;;;;;;;11.30;8.93;;;;;;;1.45;100.00;99729.25;15334283;19;20616;-53
2022/01/27 16:42:36;;;;;;;12.03;9.37;;;;;;;1.46;100.00;99728.34;15348536;19;20176;-55
2022/01/27 16:47:41;;;;;;;13.70;10.50;;;;;;;1.49;100.00;99701.09;15328513;19;20184;-52
2022/01/27 16:52:46;;;;;;;11.20;10.00;;;;;;;1.59;100.00;99723.47;15312504;19;20200;-55
2022/01/27 17:02:45;;;;;;;13.17;11.30;;;;;;;1.66;100.00;99696.91;15171554;19;2967201;-53
2022/01/27 17:07:50;;;;;;;12.97;10.97;;;;;;;1.69;100.00;99691.53;15348127;19;20944;-52
2022/01/27 17:12:55;;;;;;;12.57;10.83;;;;;;;1.76;100.00;99673.75;15309800;19;20494;-57
2022/01/27 17:18:01;;;;;;;13.17;11.30;;;;;;;1.79;100.00;99669.25;15328294;19;20647;-54
2022/01/27 17:23:06;;;;;;;12.63;11.03;;;;;;;1.83;100.00;99684.88;15340973;19;20195;-53
2022/01/27 17:28:11;;;;;;;14.10;11.87;;;;;;;1.88;100.00;99685.56;15338150;19;20150;-53
2022/01/27 17:33:15;;;;;;;18.00;14.00;;;;;;;1.94;100.00;99664.25;15316738;19;20159;-53
2022/01/27 17:38:20;;;;;;;17.97;14.10;;;;;;;1.97;100.00;99659.75;15314149;19;20159;-53
2022/01/27 17:43:33;;;;;;;17.17;14.37;;;;;;;2.04;100.00;99657.75;15340632;19;20212;-53
2022/01/27 17:53:35;;;;;;;21.97;16.67;;;;;;;2.10;100.00;99654.84;15337136;19;20965;-52
2022/01/27 17:58:40;;;;;;;19.27;16.03;;;;;;;2.12;100.00;99645.13;15314752;19;20159;-54
2022/01/27 18:03:46;;;;;;;18.83;15.90;;;;;;;2.15;100.00;99643.22;15333297;19;20568;-54
2022/01/27 18:08:50;;;;;;;21.00;16.87;;;;;;;2.26;100.00;99644.56;15340467;19;20514;-52
2022/01/27 18:13:56;;;;;;;21.60;16.47;;;;;;;2.29;100.00;99642.66;15342896;19;20151;-55
2022/01/27 18:19:01;;;;;;;20.30;16.67;;;;;;;2.29;100.00;99626.88;15323221;19;20144;-53
2022/01/27 18:24:07;;;;;;;22.50;17.53;;;;;;;2.34;100.00;99632.78;15324189;19;20151;-55
2022/01/27 18:29:12;;;;;;;19.63;16.97;;;;;;;2.37;100.00;99616.88;15340827;19;20147;-55
2022/01/27 18:34:17;;;;;;;21.50;17.00;;;;;;;2.39;100.00;99601.88;15340472;19;20155;-54
2022/01/27 18:39:22;;;;;;;22.67;17.67;;;;;;;2.42;100.00;99601.72;15332391;19;20137;-54
2022/01/27 18:44:27;;;;;;;23.57;18.07;;;;;;;2.42;100.00;99587.69;15315265;19;20284;-55
2022/01/27 18:49:33;;;;;;;22.90;17.30;;;;;;;2.45;100.00;99590.22;15333162;19;20547;-52
2022/01/27 18:54:37;;;;;;;21.27;17.33;;;;;;;2.48;100.00;99582.19;15344527;19;20168;-51
2022/01/27 19:04:40;;;;;;;19.67;16.70;;;;;;;2.58;100.00;99583.50;15313649;19;20476;-55
2022/01/27 19:09:46;;;;;;;19.80;16.50;;;;;;;2.61;100.00;99571.97;15330708;19;21481;-58
2022/01/27 19:14:51;;;;;;;19.60;15.70;;;;;;;2.68;100.00;99583.94;15343763;19;20159;-55
2022/01/27 19:25:39;;;;;;;19.10;15.10;;;;;;;2.78;100.00;99569.44;15329193;19;20152;-53
2022/01/27 19:30:44;;;;;;;18.30;14.87;;;;;;;2.84;100.00;99574.44;15319941;19;20147;-52
2022/01/27 19:35:49;;;;;;;16.33;13.33;;;;;;;2.87;100.00;99564.63;15339056;19;20248;-54
2022/01/27 19:40:54;;;;;;;17.70;15.90;;;;;;;3.32;100.00;99549.41;15333822;19;20808;-56
2022/01/27 19:51:16;;;;;;;15.50;13.30;;;;;;;3.17;100.00;99533.38;15310815;19;21204;-54
2022/01/27 19:56:22;;;;;;;15.17;12.53;;;;;;;3.20;100.00;99529.75;15336940;19;20167;-53
2022/01/27 20:01:28;;;;;;;16.37;12.30;;;;;;;3.22;100.00;99531.38;15342418;19;20183;-57
2022/01/27 20:06:34;;;;;;;15.27;12.23;;;;;;;3.19;100.00;99549.97;15343106;19;20152;-53
2022/01/27 20:11:39;;;;;;;16.57;13.17;;;;;;;3.24;100.00;99537.44;15321196;19;20637;-55
2022/01/27 20:16:43;;;;;;;14.67;12.53;;;;;;;3.25;100.00;99539.16;15333663;19;20658;-55
2022/01/27 20:21:50;;;;;;;16.70;12.47;;;;;;;3.29;100.00;99533.72;15347252;19;20148;-53
2022/01/27 20:26:57;;;;;;;16.83;12.27;;;;;;;3.28;100.00;99521.47;15336611;19;20610;-52
2022/01/27 20:32:03;;;;;;;15.53;12.13;;;;;;;3.30;100.00;99519.63;15328982;19;20156;-50
2022/01/27 20:37:26;;;;;;;13.77;12.07;;;;;;;3.35;100.00;99507.94;15319233;19;20549;-51
2022/01/27 20:42:32;;;;;;;13.70;12.17;;;;;;;3.43;100.00;99504.91;15343216;19;20144;-54
2022/01/27 20:47:38;;;;;;;13.20;10.70;;;;;;;3.49;100.00;99515.19;15340482;19;20180;-54
2022/01/27 20:52:43;;;;;;;16.87;12.83;;;;;;;3.49;100.00;99484.41;15341919;19;20546;-51
2022/01/27 20:57:48;;;;;;;15.40;11.90;;;;;;;3.49;100.00;99475.63;15311044;19;20650;-53
2022/01/27 21:07:51;;;;;;;18.93;12.60;;;;;;;3.57;100.00;99460.28;15345358;19;20488;-54
2022/01/27 21:12:56;;;;;;;15.67;12.60;;;;;;;3.59;100.00;99446.09;15349548;19;20184;-53
2022/01/27 21:18:01;;;;;;;16.93;13.00;;;;;;;3.63;100.00;99433.56;15328307;19;20152;-53
2022/01/27 21:23:06;;;;;;;16.90;12.33;;;;;;;3.64;100.00;99437.91;15321409;19;20140;-52
2022/01/27 21:28:11;;;;;;;18.17;13.27;;;;;;;3.66;100.00;99427.28;15343878;19;20215;-52
2022/01/27 21:33:18;;;;;;;16.83;11.40;;;;;;;3.68;100.00;99426.28;15343711;19;20136;-55
2022/01/27 21:38:23;;;;;;;14.23;12.13;;;;;;;3.67;100.00;99398.19;15336432;19;20540;-52
2022/01/27 21:53:21;;;;;;;14.50;11.83;;;;;;;3.70;100.00;99390.13;15340006;19;20451;-54
2022/01/27 22:03:23;;;;;;;15.87;11.47;;;;;;;3.81;100.00;99395.72;15309931;19;20481;-53
2022/01/27 22:08:28;;;;;;;14.43;11.80;;;;;;;3.80;100.00;99396.66;15331457;19;20144;-51
2022/01/27 22:18:31;;;;;;;15.77;11.90;;;;;;;3.67;100.00;99390.28;15340281;19;20488;-52
2022/01/27 22:23:37;;;;;;;13.63;11.07;;;;;;;3.70;100.00;99392.78;15333866;19;20156;-52
2022/01/27 22:28:44;;;;;;;12.13;10.23;;;;;;;3.80;100.00;99388.72;15314921;19;20144;-52
2022/01/27 22:33:49;;;;;;;13.27;11.30;;;;;;;3.74;100.00;99375.88;15340737;19;20145;-52
2022/01/27 22:38:53;;;;;;;12.33;10.53;;;;;;;3.58;100.00;99364.38;15345256;19;20175;-53
2022/01/27 22:43:59;;;;;;;12.77;10.80;;;;;;;3.56;100.00;99359.19;15343779;19;20145;-53
2022/01/27 22:49:05;;;;;;;14.73;11.13;;;;;;;3.70;100.00;99355.00;15310358;19;20618;-54
2022/01/27 22:54:09;;;;;;;13.70;10.83;;;;;;;3.71;100.00;99349.63;15331098;19;20140;-54
2022/01/27 22:59:14;;;;;;;12.63;10.10;;;;;;;3.73;100.00;99353.06;15342359;19;20572;-56
2022/01/27 23:04:19;;;;;;;12.50;9.77;;;;;;;3.74;100.00;99338.94;15343354;19;20164;-55
2022/01/27 23:09:25;;;;;;;11.83;9.43;;;;;;;3.80;100.00;99341.22;15321252;19;20152;-50
2022/01/27 23:14:39;;;;;;;13.33;9.63;;;;;;;3.76;100.00;99330.91;15316348;19;20600;-52
2022/01/27 23:19:51;;;;;;;14.20;10.30;;;;;;;3.72;100.00;99308.28;15341495;19;20144;-56
2022/01/27 23:24:57;;;;;;;13.27;9.57;;;;;;;3.76;100.00;99313.28;15342503;19;20148;-53
2022/01/27 23:30:09;;;;;;;11.50;8.73;;;;;;;3.71;100.00;99304.78;15271691;19;20141;-53
2022/01/27 23:35:14;;;;;;;9.93;7.90;;;;;;;3.72;100.00;99306.50;15251019;19;20636;-55
2022/01/27 23:40:38;;;;;;;13.03;7.67;;;;;;;3.72;100.00;99280.13;15275182;19;20180;-56
2022/01/27 23:55:49;;;;;;;10.90;7.57;;;;;;;3.60;100.00;99270.22;15310767;19;20513;-55
